This is the latest recevied weather packets stored in our database for station/object AB4BJ-10. If no packets are shown the sender has not sent any weather packets the latest 10 day(s).
| Time | Temp. | Humidity | Pressure | Rain* | Wind** | Luminosity | Snow |
|---|---|---|---|---|---|---|---|
| 1788466586 | 35° C | 56% | 1011.3 hPa | 0 mm | - | - | - |
| 1788465686 | 34.44° C | 58% | 1011.5 hPa | 0 mm | - | - | - |
| 1788465385 | 34.44° C | 56% | 1011.7 hPa | 0 mm | - | - | - |
| 1788464785 | 34.44° C | 58% | 1011.7 hPa | 0 mm | - | - | - |
| 1788464184 | 34.44° C | 58% | 1011.9 hPa | 0 mm | - | - | - |
| 1788463884 | 34.44° C | 58% | 1012 hPa | 0 mm | - | - | - |
| 1788463584 | 33.89° C | 60% | 1012 hPa | 0 mm | - | - | - |
| 1788462983 | 33.33° C | 63% | 1012.1 hPa | 0 mm | - | - | - |
| 1788462684 | 33.33° C | 65% | 1012.2 hPa | 0 mm | - | - | - |
| 1788462382 | 32.78° C | 64% | 1012.2 hPa | 0 mm | - | - | - |
| 1788462085 | 32.78° C | 63% | 1012.3 hPa | 0 mm | - | - | - |
| 1788461782 | 32.78° C | 61% | 1012.4 hPa | 0 mm | - | - | - |
| 1788461181 | 34.44° C | 58% | 1012.4 hPa | 0 mm | - | - | - |
| 1788460581 | 34.44° C | 60% | 1012.5 hPa | 0 mm | - | - | - |
| 1788460280 | 34.44° C | 60% | 1012.5 hPa | 0 mm | - | - | - |
| 1788459980 | 34.44° C | 60% | 1012.6 hPa | 0 mm | - | - | - |
| 1788459425 | 35.56° C | 56% | 1012.7 hPa | 0 mm | - | - | - |
| 1788459391 | 35.56° C | 56% | 1012.7 hPa | 0 mm | - | - | - |
| 1788459079 | 36.11° C | 53% | 1012.7 hPa | 0 mm | - | - | - |
| 1788458779 | 35.56° C | 55% | 1012.8 hPa | 0 mm | - | - | - |
| 1788458480 | 35° C | 55% | 1012.8 hPa | 0 mm | - | - | - |
| 1788457277 | 34.44° C | 62% | 1013.1 hPa | 0 mm | - | - | - |
| 1788456977 | 33.89° C | 61% | 1013.1 hPa | 0 mm | - | - | - |
| 1788456678 | 33.33° C | 61% | 1013.2 hPa | 0 mm | - | - | - |
| 1788456406 | 33.33° C | 61% | 1013.3 hPa | 0 mm | - | - | - |
* Rain latest hour (hover to see other rain measurements)
** Current wind speed in m/s (hover to see current wind gust speed)